sensor_id;sensor_type;location;lat;lon;timestamp;P1;durP1;ratioP1;P2;durP2;ratioP2
8946;SDS011;4508;48.790;9.028;2022-10-17T00:00:20;4.00;;;2.20;;
8946;SDS011;4508;48.790;9.028;2022-10-17T00:02:47;4.10;;;2.22;;
8946;SDS011;4508;48.790;9.028;2022-10-17T00:05:13;3.78;;;1.95;;
8946;SDS011;4508;48.790;9.028;2022-10-17T00:07:40;3.28;;;2.00;;
8946;SDS011;4508;48.790;9.028;2022-10-17T00:10:08;3.90;;;2.30;;
8946;SDS011;4508;48.790;9.028;2022-10-17T00:12:35;4.90;;;2.13;;
8946;SDS011;4508;48.790;9.028;2022-10-17T00:15:02;7.30;;;2.10;;
8946;SDS011;4508;48.790;9.028;2022-10-17T00:17:29;4.25;;;2.22;;
8946;SDS011;4508;48.790;9.028;2022-10-17T00:19:57;3.90;;;2.20;;
8946;SDS011;4508;48.790;9.028;2022-10-17T00:22:23;4.85;;;2.17;;
8946;SDS011;4508;48.790;9.028;2022-10-17T00:24:50;3.17;;;2.05;;
8946;SDS011;4508;48.790;9.028;2022-10-17T00:27:18;3.28;;;2.20;;
8946;SDS011;4508;48.790;9.028;2022-10-17T00:29:46;3.08;;;2.03;;
8946;SDS011;4508;48.790;9.028;2022-10-17T00:32:13;4.22;;;2.20;;
8946;SDS011;4508;48.790;9.028;2022-10-17T00:34:40;4.15;;;2.25;;
8946;SDS011;4508;48.790;9.028;2022-10-17T00:37:07;3.10;;;2.00;;
8946;SDS011;4508;48.790;9.028;2022-10-17T00:39:34;4.40;;;1.90;;
8946;SDS011;4508;48.790;9.028;2022-10-17T00:42:01;3.05;;;1.80;;
8946;SDS011;4508;48.790;9.028;2022-10-17T00:47:25;4.50;;;2.00;;
8946;SDS011;4508;48.790;9.028;2022-10-17T00:49:51;3.30;;;2.00;;
8946;SDS011;4508;48.790;9.028;2022-10-17T00:52:19;2.80;;;1.90;;
8946;SDS011;4508;48.790;9.028;2022-10-17T00:54:50;3.40;;;2.00;;
8946;SDS011;4508;48.790;9.028;2022-10-17T00:57:20;4.57;;;2.00;;
8946;SDS011;4508;48.790;9.028;2022-10-17T00:59:48;3.43;;;2.20;;
8946;SDS011;4508;48.790;9.028;2022-10-17T01:02:20;3.10;;;2.15;;
8946;SDS011;4508;48.790;9.028;2022-10-17T01:04:47;3.83;;;1.80;;
8946;SDS011;4508;48.790;9.028;2022-10-17T01:07:15;2.00;;;1.90;;
8946;SDS011;4508;48.790;9.028;2022-10-17T01:09:43;3.13;;;2.10;;
8946;SDS011;4508;48.790;9.028;2022-10-17T01:12:13;2.20;;;1.90;;
8946;SDS011;4508;48.790;9.028;2022-10-17T01:14:46;4.10;;;1.80;;
8946;SDS011;4508;48.790;9.028;2022-10-17T01:17:26;5.65;;;1.98;;
8946;SDS011;4508;48.790;9.028;2022-10-17T01:20:15;4.40;;;2.00;;
8946;SDS011;4508;48.790;9.028;2022-10-17T01:23:17;3.67;;;1.95;;
8946;SDS011;4508;48.790;9.028;2022-10-17T01:25:55;3.00;;;2.00;;
8946;SDS011;4508;48.790;9.028;2022-10-17T01:28:33;3.50;;;2.00;;
8946;SDS011;4508;48.790;9.028;2022-10-17T01:31:21;2.55;;;1.73;;
8946;SDS011;4508;48.790;9.028;2022-10-17T01:33:53;2.10;;;1.80;;
8946;SDS011;4508;48.790;9.028;2022-10-17T01:36:34;3.10;;;1.80;;
8946;SDS011;4508;48.790;9.028;2022-10-17T01:39:07;2.95;;;1.80;;
8946;SDS011;4508;48.790;9.028;2022-10-17T01:41:40;3.40;;;1.90;;
8946;SDS011;4508;48.790;9.028;2022-10-17T01:44:11;3.20;;;2.05;;
8946;SDS011;4508;48.790;9.028;2022-10-17T01:46:41;2.20;;;1.73;;
8946;SDS011;4508;48.790;9.028;2022-10-17T01:49:12;2.45;;;1.90;;
8946;SDS011;4508;48.790;9.028;2022-10-17T01:51:42;4.17;;;2.00;;
8946;SDS011;4508;48.790;9.028;2022-10-17T01:54:13;3.40;;;2.00;;
8946;SDS011;4508;48.790;9.028;2022-10-17T01:56:44;3.83;;;2.00;;
8946;SDS011;4508;48.790;9.028;2022-10-17T01:59:16;4.40;;;1.90;;
8946;SDS011;4508;48.790;9.028;2022-10-17T02:01:47;4.47;;;2.00;;
8946;SDS011;4508;48.790;9.028;2022-10-17T02:04:17;3.58;;;2.05;;
8946;SDS011;4508;48.790;9.028;2022-10-17T02:06:44;4.63;;;1.98;;
8946;SDS011;4508;48.790;9.028;2022-10-17T02:09:17;5.65;;;2.00;;
8946;SDS011;4508;48.790;9.028;2022-10-17T02:11:49;3.80;;;2.00;;
8946;SDS011;4508;48.790;9.028;2022-10-17T02:14:24;5.03;;;2.20;;
8946;SDS011;4508;48.790;9.028;2022-10-17T02:17:02;2.30;;;1.90;;
8946;SDS011;4508;48.790;9.028;2022-10-17T02:19:41;4.90;;;2.10;;
8946;SDS011;4508;48.790;9.028;2022-10-17T02:22:16;4.85;;;2.00;;
8946;SDS011;4508;48.790;9.028;2022-10-17T02:24:46;4.07;;;1.92;;
8946;SDS011;4508;48.790;9.028;2022-10-17T02:27:22;6.22;;;2.40;;
8946;SDS011;4508;48.790;9.028;2022-10-17T02:30:00;5.03;;;2.15;;
8946;SDS011;4508;48.790;9.028;2022-10-17T02:32:31;5.40;;;2.08;;
8946;SDS011;4508;48.790;9.028;2022-10-17T02:35:03;7.15;;;2.20;;
8946;SDS011;4508;48.790;9.028;2022-10-17T02:37:34;6.30;;;2.13;;
8946;SDS011;4508;48.790;9.028;2022-10-17T02:40:01;6.45;;;2.10;;
8946;SDS011;4508;48.790;9.028;2022-10-17T02:42:30;5.40;;;2.40;;
8946;SDS011;4508;48.790;9.028;2022-10-17T02:44:58;5.47;;;2.30;;
8946;SDS011;4508;48.790;9.028;2022-10-17T02:47:28;8.38;;;2.40;;
8946;SDS011;4508;48.790;9.028;2022-10-17T02:50:01;8.55;;;2.38;;
8946;SDS011;4508;48.790;9.028;2022-10-17T02:52:32;6.88;;;2.28;;
8946;SDS011;4508;48.790;9.028;2022-10-17T02:55:03;4.40;;;2.58;;
8946;SDS011;4508;48.790;9.028;2022-10-17T02:57:35;5.83;;;2.20;;
8946;SDS011;4508;48.790;9.028;2022-10-17T03:00:05;5.40;;;2.50;;
8946;SDS011;4508;48.790;9.028;2022-10-17T03:02:39;4.90;;;2.13;;
8946;SDS011;4508;48.790;9.028;2022-10-17T03:05:07;6.73;;;2.30;;
8946;SDS011;4508;48.790;9.028;2022-10-17T03:07:38;4.05;;;2.28;;
8946;SDS011;4508;48.790;9.028;2022-10-17T03:10:05;4.30;;;2.13;;
8946;SDS011;4508;48.790;9.028;2022-10-17T03:12:32;6.15;;;2.30;;
8946;SDS011;4508;48.790;9.028;2022-10-17T03:14:59;4.28;;;2.17;;
8946;SDS011;4508;48.790;9.028;2022-10-17T03:17:25;5.15;;;2.30;;
8946;SDS011;4508;48.790;9.028;2022-10-17T03:19:54;7.38;;;2.30;;
8946;SDS011;4508;48.790;9.028;2022-10-17T03:22:20;6.40;;;2.60;;
8946;SDS011;4508;48.790;9.028;2022-10-17T03:24:47;5.10;;;2.50;;
8946;SDS011;4508;48.790;9.028;2022-10-17T03:27:14;3.55;;;2.70;;
8946;SDS011;4508;48.790;9.028;2022-10-17T03:29:41;6.32;;;2.60;;
8946;SDS011;4508;48.790;9.028;2022-10-17T03:32:08;7.53;;;2.35;;
8946;SDS011;4508;48.790;9.028;2022-10-17T03:34:34;5.43;;;2.35;;
8946;SDS011;4508;48.790;9.028;2022-10-17T03:37:02;4.65;;;2.50;;
8946;SDS011;4508;48.790;9.028;2022-10-17T03:39:29;5.57;;;2.30;;
8946;SDS011;4508;48.790;9.028;2022-10-17T03:41:56;6.07;;;2.22;;
8946;SDS011;4508;48.790;9.028;2022-10-17T03:44:22;4.75;;;2.15;;
8946;SDS011;4508;48.790;9.028;2022-10-17T03:46:49;7.05;;;2.40;;
8946;SDS011;4508;48.790;9.028;2022-10-17T03:49:16;5.40;;;2.20;;
8946;SDS011;4508;48.790;9.028;2022-10-17T03:51:42;6.22;;;2.50;;
8946;SDS011;4508;48.790;9.028;2022-10-17T03:54:10;3.92;;;2.20;;
8946;SDS011;4508;48.790;9.028;2022-10-17T03:56:37;3.53;;;2.42;;
8946;SDS011;4508;48.790;9.028;2022-10-17T03:59:05;4.10;;;2.20;;
8946;SDS011;4508;48.790;9.028;2022-10-17T04:01:32;3.90;;;2.25;;
8946;SDS011;4508;48.790;9.028;2022-10-17T04:03:58;7.20;;;2.40;;
8946;SDS011;4508;48.790;9.028;2022-10-17T04:06:25;7.20;;;2.67;;
8946;SDS011;4508;48.790;9.028;2022-10-17T04:08:52;7.28;;;2.45;;
8946;SDS011;4508;48.790;9.028;2022-10-17T04:11:22;4.33;;;2.43;;
8946;SDS011;4508;48.790;9.028;2022-10-17T04:13:51;4.77;;;2.40;;
8946;SDS011;4508;48.790;9.028;2022-10-17T04:16:19;5.20;;;2.80;;
8946;SDS011;4508;48.790;9.028;2022-10-17T04:18:46;3.23;;;2.40;;
8946;SDS011;4508;48.790;9.028;2022-10-17T04:21:12;6.50;;;2.90;;
8946;SDS011;4508;48.790;9.028;2022-10-17T04:23:39;4.75;;;2.40;;
8946;SDS011;4508;48.790;9.028;2022-10-17T04:26:06;6.13;;;2.50;;
8946;SDS011;4508;48.790;9.028;2022-10-17T04:28:34;6.65;;;2.70;;
8946;SDS011;4508;48.790;9.028;2022-10-17T04:31:02;4.45;;;2.30;;
8946;SDS011;4508;48.790;9.028;2022-10-17T04:33:31;4.25;;;2.50;;
8946;SDS011;4508;48.790;9.028;2022-10-17T04:35:58;3.90;;;2.40;;
8946;SDS011;4508;48.790;9.028;2022-10-17T04:38:26;4.45;;;2.72;;
8946;SDS011;4508;48.790;9.028;2022-10-17T04:40:53;5.63;;;2.70;;
8946;SDS011;4508;48.790;9.028;2022-10-17T04:43:21;6.80;;;2.70;;
8946;SDS011;4508;48.790;9.028;2022-10-17T04:45:49;6.00;;;2.67;;
8946;SDS011;4508;48.790;9.028;2022-10-17T04:48:16;4.93;;;2.70;;
8946;SDS011;4508;48.790;9.028;2022-10-17T04:50:51;4.28;;;2.70;;
8946;SDS011;4508;48.790;9.028;2022-10-17T04:53:19;4.55;;;2.63;;
8946;SDS011;4508;48.790;9.028;2022-10-17T04:55:47;4.90;;;2.45;;
8946;SDS011;4508;48.790;9.028;2022-10-17T04:58:15;3.70;;;2.53;;
8946;SDS011;4508;48.790;9.028;2022-10-17T05:00:43;4.63;;;2.60;;
8946;SDS011;4508;48.790;9.028;2022-10-17T05:03:11;2.72;;;2.42;;
8946;SDS011;4508;48.790;9.028;2022-10-17T05:05:39;3.80;;;2.50;;
8946;SDS011;4508;48.790;9.028;2022-10-17T05:08:07;5.07;;;2.42;;
8946;SDS011;4508;48.790;9.028;2022-10-17T05:10:36;4.43;;;2.45;;
8946;SDS011;4508;48.790;9.028;2022-10-17T05:13:05;4.07;;;2.50;;
8946;SDS011;4508;48.790;9.028;2022-10-17T05:15:33;3.53;;;2.30;;
8946;SDS011;4508;48.790;9.028;2022-10-17T05:18:00;5.25;;;2.50;;
8946;SDS011;4508;48.790;9.028;2022-10-17T05:20:29;2.95;;;2.15;;
8946;SDS011;4508;48.790;9.028;2022-10-17T05:22:58;3.72;;;2.35;;
8946;SDS011;4508;48.790;9.028;2022-10-17T05:25:27;3.58;;;2.20;;
8946;SDS011;4508;48.790;9.028;2022-10-17T05:27:56;2.75;;;2.20;;
8946;SDS011;4508;48.790;9.028;2022-10-17T05:30:25;3.55;;;2.10;;
8946;SDS011;4508;48.790;9.028;2022-10-17T05:32:55;3.60;;;2.30;;
8946;SDS011;4508;48.790;9.028;2022-10-17T05:35:22;6.00;;;2.22;;
8946;SDS011;4508;48.790;9.028;2022-10-17T05:37:56;2.58;;;2.05;;
8946;SDS011;4508;48.790;9.028;2022-10-17T05:40:27;4.47;;;2.30;;
8946;SDS011;4508;48.790;9.028;2022-10-17T05:42:54;4.28;;;2.30;;
8946;SDS011;4508;48.790;9.028;2022-10-17T05:45:21;3.10;;;2.20;;
8946;SDS011;4508;48.790;9.028;2022-10-17T05:47:50;2.13;;;1.92;;
8946;SDS011;4508;48.790;9.028;2022-10-17T05:50:17;4.20;;;2.20;;
8946;SDS011;4508;48.790;9.028;2022-10-17T05:52:51;3.17;;;2.08;;
8946;SDS011;4508;48.790;9.028;2022-10-17T05:55:19;4.07;;;2.15;;
8946;SDS011;4508;48.790;9.028;2022-10-17T05:57:47;3.42;;;2.25;;
8946;SDS011;4508;48.790;9.028;2022-10-17T06:00:14;3.00;;;2.03;;
8946;SDS011;4508;48.790;9.028;2022-10-17T06:02:42;4.07;;;2.20;;
8946;SDS011;4508;48.790;9.028;2022-10-17T06:05:11;3.58;;;2.58;;
8946;SDS011;4508;48.790;9.028;2022-10-17T06:07:38;5.70;;;3.20;;
8946;SDS011;4508;48.790;9.028;2022-10-17T06:10:07;4.70;;;3.60;;
8946;SDS011;4508;48.790;9.028;2022-10-17T06:12:40;6.35;;;2.97;;
8946;SDS011;4508;48.790;9.028;2022-10-17T06:15:10;5.13;;;3.25;;
8946;SDS011;4508;48.790;9.028;2022-10-17T06:17:37;5.07;;;3.47;;
8946;SDS011;4508;48.790;9.028;2022-10-17T06:20:05;4.55;;;2.80;;
8946;SDS011;4508;48.790;9.028;2022-10-17T06:22:35;5.72;;;3.10;;
8946;SDS011;4508;48.790;9.028;2022-10-17T06:25:04;6.07;;;3.63;;
8946;SDS011;4508;48.790;9.028;2022-10-17T06:27:31;6.72;;;2.85;;
8946;SDS011;4508;48.790;9.028;2022-10-17T06:29:59;7.80;;;3.13;;
8946;SDS011;4508;48.790;9.028;2022-10-17T06:32:26;3.97;;;2.70;;
8946;SDS011;4508;48.790;9.028;2022-10-17T06:34:53;7.07;;;2.65;;
8946;SDS011;4508;48.790;9.028;2022-10-17T06:37:20;7.20;;;3.00;;
8946;SDS011;4508;48.790;9.028;2022-10-17T06:39:47;5.72;;;2.53;;
8946;SDS011;4508;48.790;9.028;2022-10-17T06:42:14;5.87;;;2.60;;
8946;SDS011;4508;48.790;9.028;2022-10-17T06:44:41;5.15;;;2.50;;
8946;SDS011;4508;48.790;9.028;2022-10-17T06:47:10;5.60;;;2.30;;
8946;SDS011;4508;48.790;9.028;2022-10-17T06:49:37;5.75;;;2.40;;
8946;SDS011;4508;48.790;9.028;2022-10-17T06:52:04;6.20;;;1.90;;
8946;SDS011;4508;48.790;9.028;2022-10-17T06:54:31;3.50;;;2.20;;
8946;SDS011;4508;48.790;9.028;2022-10-17T06:56:58;6.32;;;1.95;;
8946;SDS011;4508;48.790;9.028;2022-10-17T06:59:28;5.22;;;2.05;;
8946;SDS011;4508;48.790;9.028;2022-10-17T07:01:55;5.55;;;2.15;;
8946;SDS011;4508;48.790;9.028;2022-10-17T07:04:23;2.75;;;1.90;;
8946;SDS011;4508;48.790;9.028;2022-10-17T07:06:51;2.53;;;1.90;;
8946;SDS011;4508;48.790;9.028;2022-10-17T07:09:18;3.70;;;1.83;;
8946;SDS011;4508;48.790;9.028;2022-10-17T07:11:46;3.63;;;1.75;;
8946;SDS011;4508;48.790;9.028;2022-10-17T07:14:13;4.88;;;1.77;;
8946;SDS011;4508;48.790;9.028;2022-10-17T07:16:40;2.50;;;1.70;;
8946;SDS011;4508;48.790;9.028;2022-10-17T07:19:06;3.50;;;1.60;;
8946;SDS011;4508;48.790;9.028;2022-10-17T07:21:34;1.90;;;1.70;;
8946;SDS011;4508;48.790;9.028;2022-10-17T07:24:01;4.05;;;1.70;;
8946;SDS011;4508;48.790;9.028;2022-10-17T07:26:28;3.20;;;1.70;;
8946;SDS011;4508;48.790;9.028;2022-10-17T07:28:54;2.30;;;1.67;;
8946;SDS011;4508;48.790;9.028;2022-10-17T07:31:21;2.83;;;1.60;;
8946;SDS011;4508;48.790;9.028;2022-10-17T07:33:49;2.70;;;1.70;;
8946;SDS011;4508;48.790;9.028;2022-10-17T07:36:16;3.83;;;1.70;;
8946;SDS011;4508;48.790;9.028;2022-10-17T07:38:45;2.83;;;1.58;;
8946;SDS011;4508;48.790;9.028;2022-10-17T07:41:11;4.65;;;1.60;;
8946;SDS011;4508;48.790;9.028;2022-10-17T07:43:38;2.13;;;1.40;;
8946;SDS011;4508;48.790;9.028;2022-10-17T07:46:07;4.13;;;1.52;;
8946;SDS011;4508;48.790;9.028;2022-10-17T07:48:35;3.92;;;1.65;;
8946;SDS011;4508;48.790;9.028;2022-10-17T07:51:03;3.55;;;2.22;;
8946;SDS011;4508;48.790;9.028;2022-10-17T07:53:31;3.92;;;1.40;;
8946;SDS011;4508;48.790;9.028;2022-10-17T07:56:03;7.07;;;1.50;;
8946;SDS011;4508;48.790;9.028;2022-10-17T07:58:31;2.95;;;1.50;;
8946;SDS011;4508;48.790;9.028;2022-10-17T08:00:59;3.13;;;1.40;;
8946;SDS011;4508;48.790;9.028;2022-10-17T08:03:26;2.50;;;1.50;;
8946;SDS011;4508;48.790;9.028;2022-10-17T08:05:55;1.60;;;1.30;;
8946;SDS011;4508;48.790;9.028;2022-10-17T08:08:23;2.05;;;1.20;;
8946;SDS011;4508;48.790;9.028;2022-10-17T08:10:49;2.00;;;1.30;;
8946;SDS011;4508;48.790;9.028;2022-10-17T08:13:17;2.25;;;1.33;;
8946;SDS011;4508;48.790;9.028;2022-10-17T08:15:44;3.53;;;1.33;;
8946;SDS011;4508;48.790;9.028;2022-10-17T08:18:11;2.88;;;1.40;;
8946;SDS011;4508;48.790;9.028;2022-10-17T08:20:38;1.98;;;1.30;;
8946;SDS011;4508;48.790;9.028;2022-10-17T08:23:05;2.58;;;1.40;;
8946;SDS011;4508;48.790;9.028;2022-10-17T08:25:32;1.98;;;1.40;;
8946;SDS011;4508;48.790;9.028;2022-10-17T08:27:59;2.17;;;1.33;;
8946;SDS011;4508;48.790;9.028;2022-10-17T08:30:27;3.00;;;1.40;;
8946;SDS011;4508;48.790;9.028;2022-10-17T08:32:54;3.25;;;1.30;;
8946;SDS011;4508;48.790;9.028;2022-10-17T08:35:21;3.50;;;1.20;;
8946;SDS011;4508;48.790;9.028;2022-10-17T08:37:48;5.00;;;1.30;;
8946;SDS011;4508;48.790;9.028;2022-10-17T08:40:16;2.17;;;1.23;;
8946;SDS011;4508;48.790;9.028;2022-10-17T08:43:00;2.05;;;1.50;;
8946;SDS011;4508;48.790;9.028;2022-10-17T08:45:50;2.83;;;1.40;;
8946;SDS011;4508;48.790;9.028;2022-10-17T08:48:19;3.10;;;1.35;;
8946;SDS011;4508;48.790;9.028;2022-10-17T08:50:49;1.60;;;1.20;;
8946;SDS011;4508;48.790;9.028;2022-10-17T08:53:19;1.80;;;1.30;;
8946;SDS011;4508;48.790;9.028;2022-10-17T08:55:50;2.67;;;1.40;;
8946;SDS011;4508;48.790;9.028;2022-10-17T08:58:19;3.53;;;1.60;;
8946;SDS011;4508;48.790;9.028;2022-10-17T09:00:51;2.40;;;1.30;;
8946;SDS011;4508;48.790;9.028;2022-10-17T09:03:33;3.85;;;1.40;;
8946;SDS011;4508;48.790;9.028;2022-10-17T09:06:11;2.13;;;1.33;;
8946;SDS011;4508;48.790;9.028;2022-10-17T09:08:45;2.55;;;1.50;;
8946;SDS011;4508;48.790;9.028;2022-10-17T09:11:25;2.30;;;1.10;;
8946;SDS011;4508;48.790;9.028;2022-10-17T09:14:18;1.80;;;1.13;;
8946;SDS011;4508;48.790;9.028;2022-10-17T09:17:02;3.03;;;1.30;;
8946;SDS011;4508;48.790;9.028;2022-10-17T09:19:41;1.88;;;1.30;;
8946;SDS011;4508;48.790;9.028;2022-10-17T09:22:12;2.78;;;1.17;;
8946;SDS011;4508;48.790;9.028;2022-10-17T09:24:42;5.30;;;1.30;;
8946;SDS011;4508;48.790;9.028;2022-10-17T09:27:14;1.60;;;1.20;;
8946;SDS011;4508;48.790;9.028;2022-10-17T09:29:47;2.33;;;1.40;;
8946;SDS011;4508;48.790;9.028;2022-10-17T09:32:20;2.33;;;1.40;;
8946;SDS011;4508;48.790;9.028;2022-10-17T09:34:48;1.65;;;1.20;;
8946;SDS011;4508;48.790;9.028;2022-10-17T09:37:15;5.90;;;1.42;;
8946;SDS011;4508;48.790;9.028;2022-10-17T09:39:43;3.70;;;1.38;;
8946;SDS011;4508;48.790;9.028;2022-10-17T09:42:11;2.17;;;1.30;;
8946;SDS011;4508;48.790;9.028;2022-10-17T09:44:40;2.80;;;1.42;;
8946;SDS011;4508;48.790;9.028;2022-10-17T09:47:14;3.25;;;1.33;;
8946;SDS011;4508;48.790;9.028;2022-10-17T09:49:46;1.65;;;1.30;;
8946;SDS011;4508;48.790;9.028;2022-10-17T09:52:14;1.73;;;1.25;;
8946;SDS011;4508;48.790;9.028;2022-10-17T09:54:43;2.72;;;1.38;;
8946;SDS011;4508;48.790;9.028;2022-10-17T09:57:11;1.95;;;1.25;;
8946;SDS011;4508;48.790;9.028;2022-10-17T09:59:39;2.65;;;1.30;;
8946;SDS011;4508;48.790;9.028;2022-10-17T10:02:08;2.63;;;1.33;;
8946;SDS011;4508;48.790;9.028;2022-10-17T10:04:35;2.45;;;1.30;;
8946;SDS011;4508;48.790;9.028;2022-10-17T10:07:04;4.40;;;1.50;;
8946;SDS011;4508;48.790;9.028;2022-10-17T10:09:32;4.43;;;1.50;;
8946;SDS011;4508;48.790;9.028;2022-10-17T10:12:01;3.30;;;1.60;;
8946;SDS011;4508;48.790;9.028;2022-10-17T10:14:29;2.80;;;1.42;;
8946;SDS011;4508;48.790;9.028;2022-10-17T10:16:57;3.90;;;1.40;;
8946;SDS011;4508;48.790;9.028;2022-10-17T10:19:26;2.38;;;1.30;;
8946;SDS011;4508;48.790;9.028;2022-10-17T10:21:55;4.15;;;1.40;;
8946;SDS011;4508;48.790;9.028;2022-10-17T10:24:24;2.10;;;1.35;;
8946;SDS011;4508;48.790;9.028;2022-10-17T10:26:51;2.10;;;1.50;;
8946;SDS011;4508;48.790;9.028;2022-10-17T10:29:20;3.17;;;1.40;;
8946;SDS011;4508;48.790;9.028;2022-10-17T10:31:48;2.45;;;1.20;;
8946;SDS011;4508;48.790;9.028;2022-10-17T10:34:17;2.30;;;1.30;;
8946;SDS011;4508;48.790;9.028;2022-10-17T10:36:49;1.45;;;1.10;;
8946;SDS011;4508;48.790;9.028;2022-10-17T10:39:23;2.58;;;1.45;;
8946;SDS011;4508;48.790;9.028;2022-10-17T10:41:53;2.67;;;1.20;;
8946;SDS011;4508;48.790;9.028;2022-10-17T10:44:20;2.25;;;1.15;;
8946;SDS011;4508;48.790;9.028;2022-10-17T10:46:50;3.30;;;1.23;;
8946;SDS011;4508;48.790;9.028;2022-10-17T10:49:31;2.95;;;1.30;;
8946;SDS011;4508;48.790;9.028;2022-10-17T10:51:58;1.75;;;1.25;;
8946;SDS011;4508;48.790;9.028;2022-10-17T10:54:28;2.05;;;1.40;;
8946;SDS011;4508;48.790;9.028;2022-10-17T10:56:59;2.38;;;1.30;;
8946;SDS011;4508;48.790;9.028;2022-10-17T10:59:30;1.90;;;1.20;;
8946;SDS011;4508;48.790;9.028;2022-10-17T11:02:00;3.33;;;1.23;;
8946;SDS011;4508;48.790;9.028;2022-10-17T11:04:31;3.25;;;1.48;;
8946;SDS011;4508;48.790;9.028;2022-10-17T11:07:03;4.75;;;1.50;;
8946;SDS011;4508;48.790;9.028;2022-10-17T11:09:34;2.38;;;1.33;;
8946;SDS011;4508;48.790;9.028;2022-10-17T11:12:05;3.70;;;1.30;;
8946;SDS011;4508;48.790;9.028;2022-10-17T11:14:36;2.50;;;1.23;;
8946;SDS011;4508;48.790;9.028;2022-10-17T11:17:06;2.47;;;1.50;;
8946;SDS011;4508;48.790;9.028;2022-10-17T11:19:36;3.88;;;1.25;;
8946;SDS011;4508;48.790;9.028;2022-10-17T11:22:06;4.97;;;1.42;;
8946;SDS011;4508;48.790;9.028;2022-10-17T11:24:36;2.15;;;1.10;;
8946;SDS011;4508;48.790;9.028;2022-10-17T11:27:06;2.03;;;1.45;;
8946;SDS011;4508;48.790;9.028;2022-10-17T11:29:34;3.13;;;1.30;;
8946;SDS011;4508;48.790;9.028;2022-10-17T11:32:03;4.43;;;1.50;;
8946;SDS011;4508;48.790;9.028;2022-10-17T11:34:31;3.30;;;1.60;;
8946;SDS011;4508;48.790;9.028;2022-10-17T11:37:03;3.85;;;1.33;;
8946;SDS011;4508;48.790;9.028;2022-10-17T11:39:35;2.08;;;1.30;;
8946;SDS011;4508;48.790;9.028;2022-10-17T11:42:04;2.83;;;1.38;;
8946;SDS011;4508;48.790;9.028;2022-10-17T11:44:34;2.83;;;1.30;;
8946;SDS011;4508;48.790;9.028;2022-10-17T11:47:04;3.90;;;1.27;;
8946;SDS011;4508;48.790;9.028;2022-10-17T11:49:33;2.70;;;1.30;;
8946;SDS011;4508;48.790;9.028;2022-10-17T11:52:12;2.78;;;1.30;;
8946;SDS011;4508;48.790;9.028;2022-10-17T11:54:44;3.47;;;1.20;;
8946;SDS011;4508;48.790;9.028;2022-10-17T11:57:24;3.45;;;1.30;;
8946;SDS011;4508;48.790;9.028;2022-10-17T11:59:57;1.92;;;1.20;;
8946;SDS011;4508;48.790;9.028;2022-10-17T12:02:27;2.50;;;1.10;;
8946;SDS011;4508;48.790;9.028;2022-10-17T12:04:58;2.08;;;1.10;;
8946;SDS011;4508;48.790;9.028;2022-10-17T12:07:29;3.28;;;1.45;;
8946;SDS011;4508;48.790;9.028;2022-10-17T12:10:02;2.00;;;1.10;;
8946;SDS011;4508;48.790;9.028;2022-10-17T12:12:32;2.80;;;1.13;;
8946;SDS011;4508;48.790;9.028;2022-10-17T12:17:54;1.90;;;1.20;;
8946;SDS011;4508;48.790;9.028;2022-10-17T12:20:26;2.75;;;1.20;;
8946;SDS011;4508;48.790;9.028;2022-10-17T12:22:55;4.35;;;1.33;;
8946;SDS011;4508;48.790;9.028;2022-10-17T12:25:23;3.33;;;1.30;;
8946;SDS011;4508;48.790;9.028;2022-10-17T12:28:01;4.15;;;1.30;;
8946;SDS011;4508;48.790;9.028;2022-10-17T12:30:29;2.83;;;1.10;;
8946;SDS011;4508;48.790;9.028;2022-10-17T12:33:05;3.13;;;1.20;;
8946;SDS011;4508;48.790;9.028;2022-10-17T12:35:33;4.47;;;1.35;;
8946;SDS011;4508;48.790;9.028;2022-10-17T12:38:02;5.67;;;1.20;;
8946;SDS011;4508;48.790;9.028;2022-10-17T12:40:49;2.60;;;1.20;;
8946;SDS011;4508;48.790;9.028;2022-10-17T12:45:58;3.80;;;1.20;;
8946;SDS011;4508;48.790;9.028;2022-10-17T12:51:13;3.65;;;1.20;;
8946;SDS011;4508;48.790;9.028;2022-10-17T12:53:43;2.22;;;1.00;;
8946;SDS011;4508;48.790;9.028;2022-10-17T12:56:12;2.43;;;1.07;;
8946;SDS011;4508;48.790;9.028;2022-10-17T12:58:41;4.00;;;1.30;;
8946;SDS011;4508;48.790;9.028;2022-10-17T13:01:08;4.13;;;1.80;;
8946;SDS011;4508;48.790;9.028;2022-10-17T13:03:42;4.68;;;1.60;;
8946;SDS011;4508;48.790;9.028;2022-10-17T13:06:13;2.53;;;1.70;;
8946;SDS011;4508;48.790;9.028;2022-10-17T13:08:43;4.45;;;1.50;;
8946;SDS011;4508;48.790;9.028;2022-10-17T13:11:11;5.63;;;1.90;;
8946;SDS011;4508;48.790;9.028;2022-10-17T13:13:40;4.15;;;1.50;;
8946;SDS011;4508;48.790;9.028;2022-10-17T13:16:08;4.13;;;1.50;;
8946;SDS011;4508;48.790;9.028;2022-10-17T13:18:52;2.80;;;1.50;;
8946;SDS011;4508;48.790;9.028;2022-10-17T13:21:21;5.53;;;1.80;;
8946;SDS011;4508;48.790;9.028;2022-10-17T13:23:48;4.25;;;1.50;;
8946;SDS011;4508;48.790;9.028;2022-10-17T13:26:18;4.93;;;1.50;;
8946;SDS011;4508;48.790;9.028;2022-10-17T13:28:45;3.92;;;1.48;;
8946;SDS011;4508;48.790;9.028;2022-10-17T13:31:25;3.43;;;1.50;;
8946;SDS011;4508;48.790;9.028;2022-10-17T13:33:54;4.22;;;1.40;;
8946;SDS011;4508;48.790;9.028;2022-10-17T13:36:22;3.22;;;1.30;;
8946;SDS011;4508;48.790;9.028;2022-10-17T13:38:50;2.60;;;1.10;;
8946;SDS011;4508;48.790;9.028;2022-10-17T13:41:17;4.18;;;1.50;;
8946;SDS011;4508;48.790;9.028;2022-10-17T13:43:48;3.63;;;1.30;;
8946;SDS011;4508;48.790;9.028;2022-10-17T13:46:24;6.60;;;1.33;;
8946;SDS011;4508;48.790;9.028;2022-10-17T13:48:52;3.30;;;1.20;;
8946;SDS011;4508;48.790;9.028;2022-10-17T13:51:19;3.00;;;1.33;;
8946;SDS011;4508;48.790;9.028;2022-10-17T13:53:47;2.83;;;1.20;;
8946;SDS011;4508;48.790;9.028;2022-10-17T13:56:16;3.10;;;1.20;;
8946;SDS011;4508;48.790;9.028;2022-10-17T13:58:44;2.27;;;1.10;;
8946;SDS011;4508;48.790;9.028;2022-10-17T14:01:11;3.42;;;1.20;;
8946;SDS011;4508;48.790;9.028;2022-10-17T14:03:39;2.20;;;1.20;;
8946;SDS011;4508;48.790;9.028;2022-10-17T14:06:14;3.10;;;1.23;;
8946;SDS011;4508;48.790;9.028;2022-10-17T14:08:46;2.90;;;1.20;;
8946;SDS011;4508;48.790;9.028;2022-10-17T14:11:16;2.95;;;1.23;;
8946;SDS011;4508;48.790;9.028;2022-10-17T14:13:47;3.50;;;1.33;;
8946;SDS011;4508;48.790;9.028;2022-10-17T14:16:14;3.43;;;1.10;;
8946;SDS011;4508;48.790;9.028;2022-10-17T14:18:41;2.67;;;1.20;;
8946;SDS011;4508;48.790;9.028;2022-10-17T14:21:16;2.85;;;1.02;;
8946;SDS011;4508;48.790;9.028;2022-10-17T14:23:44;4.25;;;1.27;;
8946;SDS011;4508;48.790;9.028;2022-10-17T14:26:12;2.92;;;1.15;;
8946;SDS011;4508;48.790;9.028;2022-10-17T14:28:41;3.42;;;1.30;;
8946;SDS011;4508;48.790;9.028;2022-10-17T14:31:19;1.98;;;1.10;;
8946;SDS011;4508;48.790;9.028;2022-10-17T14:33:48;4.03;;;1.45;;
8946;SDS011;4508;48.790;9.028;2022-10-17T14:36:16;3.60;;;1.20;;
8946;SDS011;4508;48.790;9.028;2022-10-17T14:38:44;3.97;;;1.27;;
8946;SDS011;4508;48.790;9.028;2022-10-17T14:41:13;1.85;;;1.20;;
8946;SDS011;4508;48.790;9.028;2022-10-17T14:43:43;1.75;;;1.20;;
8946;SDS011;4508;48.790;9.028;2022-10-17T14:46:12;2.38;;;1.10;;
8946;SDS011;4508;48.790;9.028;2022-10-17T14:48:40;3.30;;;1.30;;
8946;SDS011;4508;48.790;9.028;2022-10-17T14:51:08;3.22;;;1.30;;
8946;SDS011;4508;48.790;9.028;2022-10-17T14:53:36;2.47;;;1.30;;
8946;SDS011;4508;48.790;9.028;2022-10-17T14:56:04;2.40;;;1.30;;
8946;SDS011;4508;48.790;9.028;2022-10-17T14:58:32;2.90;;;1.20;;
8946;SDS011;4508;48.790;9.028;2022-10-17T15:01:00;2.03;;;1.30;;
8946;SDS011;4508;48.790;9.028;2022-10-17T15:03:27;2.92;;;1.27;;
8946;SDS011;4508;48.790;9.028;2022-10-17T15:05:54;3.13;;;1.40;;
8946;SDS011;4508;48.790;9.028;2022-10-17T15:08:22;4.60;;;1.30;;
8946;SDS011;4508;48.790;9.028;2022-10-17T15:10:50;2.88;;;1.35;;
8946;SDS011;4508;48.790;9.028;2022-10-17T15:13:17;2.67;;;1.50;;
8946;SDS011;4508;48.790;9.028;2022-10-17T15:15:44;3.78;;;1.40;;
8946;SDS011;4508;48.790;9.028;2022-10-17T15:18:16;2.58;;;1.40;;
8946;SDS011;4508;48.790;9.028;2022-10-17T15:20:43;3.47;;;1.42;;
8946;SDS011;4508;48.790;9.028;2022-10-17T15:23:10;4.47;;;1.50;;
8946;SDS011;4508;48.790;9.028;2022-10-17T15:25:37;3.15;;;1.70;;
8946;SDS011;4508;48.790;9.028;2022-10-17T15:28:04;5.80;;;2.85;;
8946;SDS011;4508;48.790;9.028;2022-10-17T15:30:34;4.68;;;2.10;;
8946;SDS011;4508;48.790;9.028;2022-10-17T15:33:01;3.42;;;1.75;;
8946;SDS011;4508;48.790;9.028;2022-10-17T15:35:30;3.40;;;1.60;;
8946;SDS011;4508;48.790;9.028;2022-10-17T15:37:57;3.20;;;1.60;;
8946;SDS011;4508;48.790;9.028;2022-10-17T15:40:24;4.00;;;1.50;;